Time;durP1;ratioP1;P1;durP2;ratioP2;P2;SDS_P1;SDS_P2;PMS_P1;PMS_P2;Temp;Humidity;BMP_temperature;BMP_pressure;BME280_temperature;BME280_humidity;BME280_pressure;Samples;Min_cycle;Max_cycle;Signal;HPM_P1;HPM_P2
2023/01/27 00:00:35;;;;;;;11.83;3.57;;;;;;;3.69;100.00;102298.00;5241868;28;20040;-71
2023/01/27 00:03:11;;;;;;;13.97;3.93;;;;;;;3.67;100.00;102288.44;5241905;28;20034;-70
2023/01/27 00:05:44;;;;;;;12.45;3.70;;;;;;;3.66;100.00;102287.56;5242381;28;20041;-70
2023/01/27 00:08:16;;;;;;;14.90;3.28;;;;;;;3.64;100.00;102284.91;5241806;28;20384;-70
2023/01/27 00:13:25;;;;;;;20.33;3.92;;;;;;;3.64;100.00;102291.78;5241761;28;20025;-69
2023/01/27 00:13:39;;;;;;;11.15;2.95;;;;;;;3.59;100.00;102281.28;5241475;28;20095;-69
2023/01/27 00:16:10;;;;;;;11.70;2.90;;;;;;;3.62;100.00;102285.66;5241773;28;20037;-70
2023/01/27 00:18:42;;;;;;;14.07;3.47;;;;;;;3.58;100.00;102283.78;5241476;28;20030;-69
2023/01/27 00:26:53;;;;;;;15.50;4.18;;;;;;;3.52;100.00;102284.41;5241015;28;20045;-71
2023/01/27 00:29:25;;;;;;;13.77;3.67;;;;;;;3.52;100.00;102281.84;5241534;28;20029;-71
2023/01/27 00:34:46;;;;;;;15.13;4.25;;;;;;;3.47;100.00;102284.22;5241142;28;20069;-71
2023/01/27 00:37:18;;;;;;;12.07;3.53;;;;;;;3.44;100.00;102280.66;5241460;28;20038;-71
2023/01/27 00:39:49;;;;;;;15.60;3.77;;;;;;;3.42;100.00;102279.72;5243995;28;20025;-71
2023/01/27 00:42:20;;;;;;;13.37;3.30;;;;;;;3.42;100.00;102277.13;5245794;28;20033;-70
2023/01/27 00:47:43;;;;;;;14.45;2.85;;;;;;;3.43;100.00;102282.34;5245972;28;20037;-71
2023/01/27 00:50:15;;;;;;;14.40;5.40;;;;;;;3.40;100.00;102286.53;5245593;28;20038;-71
2023/01/27 00:52:47;;;;;;;12.88;3.20;;;;;;;3.43;100.00;102278.88;5245266;28;20026;-70
2023/01/27 00:55:19;;;;;;;15.97;4.07;;;;;;;3.40;100.00;102289.09;5244527;28;20025;-70
2023/01/27 00:57:50;;;;;;;17.55;3.63;;;;;;;3.42;100.00;102292.59;5245482;28;20053;-70
2023/01/27 01:00:22;;;;;;;12.70;4.63;;;;;;;3.44;100.00;102290.97;5245576;28;20541;-70
2023/01/27 01:02:53;;;;;;;11.53;3.63;;;;;;;3.39;100.00;102292.47;5245107;28;20029;-70
2023/01/27 01:05:24;;;;;;;12.07;3.43;;;;;;;3.35;100.00;102291.47;5244977;28;20030;-70
2023/01/27 01:07:56;;;;;;;14.53;3.60;;;;;;;3.34;100.00;102299.16;5244981;28;20061;-70
2023/01/27 01:10:27;;;;;;;14.80;5.13;;;;;;;3.27;100.00;102287.72;5243553;28;20045;-70
2023/01/27 01:12:58;;;;;;;15.97;4.33;;;;;;;3.28;100.00;102298.09;5243601;28;20103;-71
2023/01/27 01:15:33;;;;;;;16.33;5.30;;;;;;;3.23;100.00;102294.41;5244873;28;20037;-71
2023/01/27 01:18:06;;;;;;;15.95;4.57;;;;;;;3.26;100.00;102299.69;5244752;28;20044;-71
2023/01/27 01:20:41;;;;;;;14.90;4.47;;;;;;;3.25;100.00;102304.78;5244752;28;20036;-71
2023/01/27 01:23:14;;;;;;;16.60;3.92;;;;;;;3.21;100.00;102298.63;5243517;28;20029;-69
2023/01/27 01:25:56;;;;;;;21.08;4.43;;;;;;;3.17;100.00;102299.34;5244289;28;20044;-71
2023/01/27 01:28:27;;;;;;;20.13;5.35;;;;;;;3.13;100.00;102301.72;5244488;28;20333;-71
2023/01/27 01:31:18;;;;;;;14.40;4.63;;;;;;;3.16;100.00;102317.31;5245075;28;20037;-71
2023/01/27 01:33:50;;;;;;;16.00;4.32;;;;;;;3.09;100.00;102308.41;5244638;28;20049;-71
2023/01/27 01:36:21;;;;;;;14.87;4.90;;;;;;;3.12;100.00;102307.66;5244517;28;20033;-71
2023/01/27 01:38:56;;;;;;;14.67;4.80;;;;;;;3.09;100.00;102313.56;5244414;28;20116;-71
2023/01/27 01:41:27;;;;;;;16.98;4.45;;;;;;;3.06;100.00;102310.88;5244321;28;20029;-71
2023/01/27 01:44:18;;;;;;;16.00;3.43;;;;;;;3.07;100.00;102313.50;5244418;28;20032;-71
2023/01/27 01:46:49;;;;;;;12.77;3.95;;;;;;;3.05;100.00;102311.69;5244453;28;20530;-71
2023/01/27 01:49:37;;;;;;;10.30;4.60;;;;;;;3.04;100.00;102313.41;5244142;28;20025;-73
2023/01/27 01:52:15;;;;;;;15.45;4.38;;;;;;;3.06;100.00;102319.47;5243976;28;20143;-71
2023/01/27 01:54:53;;;;;;;15.88;4.78;;;;;;;3.06;100.00;102310.88;5243189;28;20048;-72
2023/01/27 01:57:32;;;;;;;14.77;4.85;;;;;;;3.02;100.00;102316.72;5243973;28;20061;-70
2023/01/27 02:00:06;;;;;;;12.70;5.25;;;;;;;2.99;100.00;102320.03;5244376;28;20457;-70
2023/01/27 02:02:39;;;;;;;10.73;5.40;;;;;;;2.98;100.00;102312.22;5243884;28;20029;-71
2023/01/27 02:05:26;;;;;;;15.45;5.20;;;;;;;3.02;100.00;102311.56;5243722;28;20421;-70
2023/01/27 02:08:00;;;;;;;14.52;4.22;;;;;;;3.02;100.00;102314.13;5243465;28;20088;-70
2023/01/27 02:10:33;;;;;;;11.80;3.63;;;;;;;3.01;100.00;102314.94;5243825;28;20083;-70
2023/01/27 02:13:04;;;;;;;12.07;4.82;;;;;;;2.94;100.00;102318.06;5242533;28;20033;-70
2023/01/27 02:15:37;;;;;;;12.70;4.73;;;;;;;2.90;100.00;102292.19;5243720;28;20040;-70
2023/01/27 02:18:08;;;;;;;11.77;4.15;;;;;;;2.95;100.00;102310.41;5243876;28;20034;-72
2023/01/27 02:20:48;;;;;;;12.77;4.30;;;;;;;2.93;100.00;102306.91;5243595;28;20072;-71
2023/01/27 02:23:53;;;;;;;14.23;4.80;;;;;;;2.99;100.00;102314.00;5243752;28;20545;-70
2023/01/27 02:26:29;;;;;;;16.25;5.47;;;;;;;2.97;100.00;102316.50;5243444;28;20035;-70
2023/01/27 02:29:06;;;;;;;14.95;5.25;;;;;;;2.99;100.00;102314.88;5243187;28;20021;-70
2023/01/27 02:31:38;;;;;;;12.50;5.03;;;;;;;2.99;100.00;102322.59;5242958;28;20029;-69
2023/01/27 02:34:13;;;;;;;16.70;5.10;;;;;;;2.94;100.00;102326.69;5243696;28;20437;-70
2023/01/27 02:36:59;;;;;;;13.93;4.45;;;;;;;2.97;100.00;102328.53;5242968;28;20035;-70
2023/01/27 02:39:36;;;;;;;15.90;4.35;;;;;;;2.96;100.00;102332.75;5243227;28;20025;-70
2023/01/27 02:42:11;;;;;;;11.27;4.07;;;;;;;2.94;100.00;102334.41;5243196;28;20033;-72
2023/01/27 02:44:42;;;;;;;16.20;4.97;;;;;;;2.96;100.00;102331.91;5242980;28;20029;-71
2023/01/27 02:47:13;;;;;;;10.77;3.93;;;;;;;2.97;100.00;102338.81;5242777;28;20049;-70
2023/01/27 02:49:45;;;;;;;11.57;4.80;;;;;;;2.93;100.00;102345.53;5243492;28;20040;-70
2023/01/27 02:52:16;;;;;;;12.23;5.10;;;;;;;2.94;100.00;102336.97;5242858;28;20044;-70
2023/01/27 02:54:47;;;;;;;13.47;4.93;;;;;;;2.97;100.00;102338.81;5242669;28;20045;-70
2023/01/27 02:57:19;;;;;;;10.23;4.77;;;;;;;2.88;100.00;102335.03;5243393;28;20084;-71
2023/01/27 02:59:50;;;;;;;11.90;4.60;;;;;;;2.90;100.00;102332.53;5242723;28;20034;-70
2023/01/27 03:02:29;;;;;;;14.33;5.23;;;;;;;2.91;100.00;102339.41;5242260;28;20076;-70
2023/01/27 03:05:00;;;;;;;15.02;5.68;;;;;;;2.89;100.00;102331.63;5242894;28;20357;-70
2023/01/27 03:07:31;;;;;;;11.57;5.80;;;;;;;2.87;100.00;102332.38;5242872;28;20039;-70
2023/01/27 03:10:03;;;;;;;12.03;5.23;;;;;;;2.82;100.00;102329.59;5242681;28;20033;-70
2023/01/27 03:12:34;;;;;;;11.90;5.97;;;;;;;2.86;100.00;102340.91;5242541;28;20045;-70
2023/01/27 03:18:15;;;;;;;15.82;5.93;;;;;;;2.91;100.00;102339.41;5242802;28;20033;-70
2023/01/27 03:20:48;;;;;;;17.38;6.60;;;;;;;2.91;100.00;102337.75;5242426;28;20041;-70
2023/01/27 03:23:19;;;;;;;18.45;6.80;;;;;;;2.86;100.00;102335.75;5242297;28;20033;-70
2023/01/27 03:25:51;;;;;;;14.87;5.93;;;;;;;2.82;100.00;102334.75;5242148;28;20045;-70
2023/01/27 03:28:22;;;;;;;19.67;6.60;;;;;;;2.83;100.00;102348.50;5241076;28;20030;-70
2023/01/27 03:31:06;;;;;;;12.87;6.50;;;;;;;2.84;100.00;102337.41;5242629;28;20134;-70
2023/01/27 03:33:41;;;;;;;16.80;7.22;;;;;;;2.79;100.00;102344.91;5242153;28;20060;-70
2023/01/27 03:47:34;;;;;;;16.20;8.00;;;;;;;2.79;100.00;102362.94;5241809;28;20041;-70
2023/01/27 03:50:10;;;;;;;17.17;8.93;;;;;;;2.79;100.00;102367.22;5242362;28;20029;-70
2023/01/27 03:53:01;;;;;;;14.77;8.32;;;;;;;2.80;100.00;102366.41;5242238;28;20492;-70
2023/01/27 03:55:34;;;;;;;16.08;8.23;;;;;;;2.73;100.00;102366.13;5242481;28;20045;-71
2023/01/27 03:58:20;;;;;;;19.95;10.15;;;;;;;2.79;100.00;102374.97;5241986;28;20381;-71
2023/01/27 04:00:55;;;;;;;17.02;8.88;;;;;;;2.80;100.00;102377.59;5241957;28;20036;-71
2023/01/27 04:09:22;;;;;;;15.40;8.50;;;;;;;2.73;100.00;102371.28;5241975;28;20041;-69
2023/01/27 04:11:57;;;;;;;18.10;9.80;;;;;;;2.73;100.00;102373.84;5241884;28;20033;-70
2023/01/27 04:14:36;;;;;;;23.42;9.70;;;;;;;2.70;100.00;102376.28;5242977;28;20079;-69
2023/01/27 04:17:13;;;;;;;17.73;10.27;;;;;;;2.77;100.00;102380.03;5245672;28;20048;-69
2023/01/27 04:19:45;;;;;;;18.73;10.98;;;;;;;2.71;100.00;102360.03;5245898;28;20099;-70
2023/01/27 04:22:17;;;;;;;22.30;9.70;;;;;;;2.71;100.00;102365.19;5245947;28;20029;-70
2023/01/27 04:24:49;;;;;;;25.80;10.83;;;;;;;2.72;100.00;102378.94;5245733;28;20280;-70
2023/01/27 04:27:20;;;;;;;20.77;11.13;;;;;;;2.68;100.00;102371.88;5246089;28;20171;-70
2023/01/27 04:29:52;;;;;;;19.63;10.37;;;;;;;2.71;100.00;102372.03;5245987;28;20040;-70
2023/01/27 04:32:23;;;;;;;19.57;10.97;;;;;;;2.69;100.00;102363.38;5245696;28;20477;-70
2023/01/27 04:34:55;;;;;;;21.63;10.97;;;;;;;2.72;100.00;102369.53;5246210;28;20465;-70
2023/01/27 04:37:26;;;;;;;22.33;11.80;;;;;;;2.73;100.00;102376.41;5245535;28;20025;-70
2023/01/27 04:39:57;;;;;;;16.70;11.30;;;;;;;2.75;100.00;102381.63;5246116;28;20029;-70
2023/01/27 04:42:29;;;;;;;18.80;11.23;;;;;;;2.74;100.00;102385.03;5245524;28;20104;-70
2023/01/27 04:45:00;;;;;;;20.60;12.13;;;;;;;2.75;100.00;102376.50;5245349;28;20025;-70
2023/01/27 04:47:32;;;;;;;18.17;11.07;;;;;;;2.71;100.00;102385.78;5244143;28;20109;-70
2023/01/27 04:50:03;;;;;;;19.77;13.70;;;;;;;2.71;100.00;102390.94;5244820;28;20087;-71
2023/01/27 04:52:35;;;;;;;17.83;11.77;;;;;;;2.76;100.00;102388.56;5244987;28;20416;-70
2023/01/27 04:55:06;;;;;;;19.30;12.70;;;;;;;2.76;100.00;102388.56;5245799;28;20038;-70
2023/01/27 04:57:41;;;;;;;21.07;12.07;;;;;;;2.68;100.00;102387.34;5243953;28;20040;-71
2023/01/27 05:00:13;;;;;;;18.48;12.82;;;;;;;2.69;100.00;102399.41;5244744;28;20061;-71
2023/01/27 05:02:44;;;;;;;21.07;12.97;;;;;;;2.69;100.00;102394.25;5245145;28;20061;-71
2023/01/27 05:05:15;;;;;;;16.17;11.87;;;;;;;2.70;100.00;102388.28;5245073;28;20029;-70
2023/01/27 05:07:47;;;;;;;17.37;12.50;;;;;;;2.70;100.00;102402.03;5245269;28;20044;-70
2023/01/27 05:10:18;;;;;;;16.90;12.17;;;;;;;2.69;100.00;102410.59;5244955;28;20527;-70
2023/01/27 05:12:50;;;;;;;19.63;12.23;;;;;;;2.68;100.00;102407.94;5243665;28;20029;-70
2023/01/27 05:15:21;;;;;;;17.33;11.63;;;;;;;2.64;100.00;102406.03;5244922;28;20041;-70
2023/01/27 05:17:52;;;;;;;17.33;12.23;;;;;;;2.64;100.00;102406.03;5244879;28;20069;-70
2023/01/27 05:20:24;;;;;;;15.47;11.60;;;;;;;2.66;100.00;102404.41;5244814;28;20041;-70
2023/01/27 05:23:33;;;;;;;14.90;11.13;;;;;;;2.68;100.00;102407.94;5244438;28;20033;-70
2023/01/27 05:25:46;;;;;;;16.27;12.10;;;;;;;2.70;100.00;102419.19;5243704;28;20515;-70
2023/01/27 05:28:18;;;;;;;15.37;12.10;;;;;;;2.70;100.00;102416.59;5245148;28;20026;-70
2023/01/27 05:30:49;;;;;;;16.27;11.30;;;;;;;2.70;100.00;102408.88;5244568;28;20033;-70
2023/01/27 05:33:23;;;;;;;15.37;10.73;;;;;;;2.67;100.00;102417.38;5244317;28;20034;-70
2023/01/27 05:35:58;;;;;;;13.85;10.70;;;;;;;2.67;100.00;102417.38;5244508;28;20068;-71
2023/01/27 05:38:30;;;;;;;15.75;11.07;;;;;;;2.69;100.00;102420.00;5244110;28;20128;-71
2023/01/27 05:41:04;;;;;;;15.37;11.17;;;;;;;2.69;100.00;102427.75;5243223;28;20124;-71
2023/01/27 05:43:37;;;;;;;16.13;11.45;;;;;;;2.67;100.00;102422.50;5244197;28;20061;-70
2023/01/27 05:46:15;;;;;;;15.00;11.93;;;;;;;2.68;100.00;102423.38;5245022;28;20033;-71
2023/01/27 05:48:48;;;;;;;18.45;11.40;;;;;;;2.67;100.00;102427.66;5244306;28;20349;-70
2023/01/27 05:51:21;;;;;;;15.57;10.90;;;;;;;2.68;100.00;102434.56;5244186;28;20070;-71
2023/01/27 05:53:54;;;;;;;14.85;11.95;;;;;;;2.70;100.00;102439.78;5244115;28;20047;-71
2023/01/27 05:56:26;;;;;;;15.90;12.18;;;;;;;2.68;100.00;102441.41;5243988;28;20034;-71
2023/01/27 05:58:58;;;;;;;15.67;12.07;;;;;;;2.65;100.00;102434.41;5243685;28;20599;-71
2023/01/27 06:01:31;;;;;;;14.93;12.13;;;;;;;2.66;100.00;102440.47;5243314;28;20369;-71
2023/01/27 06:04:04;;;;;;;17.67;12.43;;;;;;;2.67;100.00;102434.47;5244151;28;20465;-71
2023/01/27 06:06:35;;;;;;;16.60;11.90;;;;;;;2.67;100.00;102437.06;5243874;28;20033;-70
2023/01/27 06:09:08;;;;;;;15.43;12.07;;;;;;;2.67;100.00;102444.78;5243793;28;20034;-70
2023/01/27 06:11:39;;;;;;;14.82;10.90;;;;;;;2.66;100.00;102453.34;5244047;28;20026;-70
2023/01/27 06:14:11;;;;;;;15.53;11.17;;;;;;;2.68;100.00;102449.13;5243962;28;20350;-71
2023/01/27 06:16:45;;;;;;;14.83;12.03;;;;;;;2.67;100.00;102444.78;5243727;28;20033;-71
2023/01/27 06:19:17;;;;;;;15.48;11.90;;;;;;;2.66;100.00;102443.03;5244333;28;20033;-71
2023/01/27 06:21:48;;;;;;;13.83;11.83;;;;;;;2.68;100.00;102451.72;5243636;28;20382;-71
2023/01/27 06:24:20;;;;;;;15.43;12.07;;;;;;;2.66;100.00;102445.63;5242028;28;20049;-71
2023/01/27 06:26:51;;;;;;;16.20;11.43;;;;;;;2.66;100.00;102453.34;5243354;28;20045;-71
2023/01/27 06:29:22;;;;;;;16.47;11.73;;;;;;;2.69;100.00;102458.63;5243599;28;20056;-71
2023/01/27 06:31:54;;;;;;;15.67;12.70;;;;;;;2.69;100.00;102456.94;5243604;28;20061;-69
2023/01/27 06:34:25;;;;;;;14.33;11.97;;;;;;;2.69;100.00;102462.09;5243053;28;20058;-70
2023/01/27 06:36:56;;;;;;;15.80;12.43;;;;;;;2.71;100.00;102459.59;5241162;28;20080;-70
2023/01/27 06:39:28;;;;;;;14.27;11.27;;;;;;;2.67;100.00;102457.66;5243229;28;20524;-70
2023/01/27 06:41:59;;;;;;;12.10;10.70;;;;;;;2.69;100.00;102461.22;5243278;28;20454;-70
2023/01/27 06:44:30;;;;;;;15.23;11.27;;;;;;;2.71;100.00;102460.44;5242607;28;20025;-69
2023/01/27 06:47:02;;;;;;;13.87;11.13;;;;;;;2.72;100.00;102466.47;5242962;28;20041;-70
2023/01/27 06:49:33;;;;;;;14.20;11.57;;;;;;;2.68;100.00;102459.44;5241646;28;20069;-70
2023/01/27 06:52:04;;;;;;;16.70;12.00;;;;;;;2.69;100.00;102459.50;5241560;28;20384;-70
2023/01/27 06:54:36;;;;;;;11.00;9.80;;;;;;;2.69;100.00;102458.63;5242882;28;20099;-70
2023/01/27 06:57:10;;;;;;;13.67;11.80;;;;;;;2.69;100.00;102462.09;5243057;28;20217;-71
2023/01/27 06:59:42;;;;;;;13.68;10.25;;;;;;;2.72;100.00;102461.31;5242643;28;20108;-70
2023/01/27 07:02:13;;;;;;;16.47;10.63;;;;;;;2.77;100.00;102462.44;5243439;28;20116;-70
2023/01/27 07:04:44;;;;;;;12.97;10.20;;;;;;;2.73;100.00;102463.09;5242594;28;20122;-70
2023/01/27 07:07:16;;;;;;;11.30;10.10;;;;;;;2.73;100.00;102465.69;5241366;28;20032;-71
2023/01/27 07:09:47;;;;;;;11.30;9.87;;;;;;;2.76;100.00;102470.97;5242908;28;20025;-70
2023/01/27 07:12:18;;;;;;;11.73;8.93;;;;;;;2.72;100.00;102461.31;5242833;28;20129;-70
2023/01/27 07:14:50;;;;;;;10.33;9.17;;;;;;;2.77;100.00;102467.59;5242570;28;20025;-70
2023/01/27 07:17:21;;;;;;;13.30;9.40;;;;;;;2.76;100.00;102460.66;5242492;28;20124;-70
2023/01/27 07:19:52;;;;;;;11.07;9.37;;;;;;;2.77;100.00;102464.13;5242111;28;20029;-70
2023/01/27 07:22:24;;;;;;;10.23;9.13;;;;;;;2.82;100.00;102475.50;5242013;28;20037;-70
2023/01/27 07:24:56;;;;;;;10.07;8.03;;;;;;;2.80;100.00;102472.91;5240991;28;20548;-70
2023/01/27 07:27:28;;;;;;;10.17;8.13;;;;;;;2.81;100.00;102473.75;5242285;28;20029;-71
2023/01/27 07:29:59;;;;;;;12.88;8.77;;;;;;;2.83;100.00;102485.88;5242184;28;20040;-70
2023/01/27 07:32:31;;;;;;;8.23;7.27;;;;;;;2.84;100.00;102474.78;5242747;28;20025;-70
2023/01/27 07:35:02;;;;;;;11.43;8.40;;;;;;;2.83;100.00;102479.84;5242365;28;20373;-70
2023/01/27 07:37:34;;;;;;;10.23;7.57;;;;;;;2.84;100.00;102481.63;5242074;28;20041;-70
2023/01/27 07:40:07;;;;;;;11.70;8.43;;;;;;;2.85;100.00;102483.38;5241954;28;20029;-70
2023/01/27 07:42:39;;;;;;;9.68;8.15;;;;;;;2.81;100.00;102484.94;5241772;28;20030;-70
2023/01/27 07:45:10;;;;;;;10.55;7.53;;;;;;;2.82;100.00;102483.22;5241642;28;20112;-70
2023/01/27 07:47:42;;;;;;;11.27;7.53;;;;;;;2.88;100.00;102489.56;5241580;28;20116;-70
2023/01/27 07:50:13;;;;;;;8.07;7.10;;;;;;;2.91;100.00;102489.72;5241439;28;20104;-71
2023/01/27 07:52:44;;;;;;;9.53;6.47;;;;;;;2.94;100.00;102488.97;5241977;28;20090;-70
2023/01/27 07:55:16;;;;;;;8.43;6.10;;;;;;;2.90;100.00;102493.09;5241738;28;20117;-70
2023/01/27 07:57:47;;;;;;;10.07;6.67;;;;;;;2.95;100.00;102494.97;5241668;28;20029;-70
2023/01/27 08:00:20;;;;;;;8.30;6.27;;;;;;;2.96;100.00;102499.34;5241003;28;20043;-70
2023/01/27 08:02:53;;;;;;;8.50;6.43;;;;;;;3.01;100.00;102501.31;5241391;28;20109;-70
2023/01/27 08:05:25;;;;;;;9.30;6.38;;;;;;;3.00;100.00;102501.25;5241946;28;20121;-70
2023/01/27 08:07:57;;;;;;;8.05;6.50;;;;;;;3.01;100.00;102497.84;5241456;28;20036;-70
2023/01/27 08:10:29;;;;;;;7.07;5.97;;;;;;;3.01;100.00;102503.00;5241482;28;20022;-70
2023/01/27 08:13:00;;;;;;;8.35;6.45;;;;;;;3.00;100.00;102491.81;5241459;28;20033;-70
2023/01/27 08:15:32;;;;;;;8.30;6.87;;;;;;;3.03;100.00;102501.41;5241593;28;20469;-70
2023/01/27 08:18:03;;;;;;;11.07;9.43;;;;;;;3.02;100.00;102495.34;5241752;28;20108;-70
2023/01/27 08:20:34;;;;;;;9.27;7.60;;;;;;;3.04;100.00;102490.25;5241514;28;20053;-70
2023/01/27 08:23:06;;;;;;;6.93;6.23;;;;;;;3.06;100.00;102502.41;5241461;28;20053;-70
2023/01/27 08:25:37;;;;;;;9.70;6.67;;;;;;;3.03;100.00;102499.69;5241688;28;20049;-70
2023/01/27 08:28:08;;;;;;;9.53;6.53;;;;;;;3.08;100.00;102508.50;5241104;28;20164;-71
2023/01/27 08:30:40;;;;;;;7.97;6.23;;;;;;;3.09;100.00;102506.81;5241042;28;20041;-70
2023/01/27 08:33:12;;;;;;;8.53;6.20;;;;;;;3.15;100.00;102516.53;5241276;28;20033;-71
2023/01/27 08:35:43;;;;;;;8.93;6.80;;;;;;;3.17;100.00;102507.16;5241653;28;20495;-70
2023/01/27 08:38:17;;;;;;;8.50;6.90;;;;;;;3.17;100.00;102513.22;5241209;28;20402;-70
2023/01/27 08:40:49;;;;;;;7.75;6.93;;;;;;;3.18;100.00;102514.09;5241303;28;20095;-70
2023/01/27 08:43:20;;;;;;;9.77;6.17;;;;;;;3.20;100.00;102508.19;5240830;28;20029;-71
2023/01/27 08:45:52;;;;;;;8.63;6.30;;;;;;;3.23;100.00;102516.03;5241171;28;20065;-70
2023/01/27 08:48:23;;;;;;;8.10;6.00;;;;;;;3.24;100.00;102522.09;5241098;28;20033;-70
2023/01/27 08:50:55;;;;;;;10.27;6.27;;;;;;;3.23;100.00;102517.75;5241121;28;20045;-70
2023/01/27 08:53:27;;;;;;;9.93;5.97;;;;;;;3.30;100.00;102530.13;5240904;28;20057;-70
2023/01/27 08:56:06;;;;;;;7.45;5.88;;;;;;;3.31;99.93;102525.84;5241426;28;20037;-70
2023/01/27 08:58:38;;;;;;;8.50;6.25;;;;;;;3.33;100.00;102534.50;5241067;28;20028;-71
2023/01/27 09:01:09;;;;;;;8.80;5.63;;;;;;;3.31;100.00;102536.16;5243989;28;20037;-71
2023/01/27 09:03:41;;;;;;;8.20;5.80;;;;;;;3.36;100.00;102547.53;5245279;28;20080;-70
2023/01/27 09:06:12;;;;;;;8.77;6.00;;;;;;;3.33;99.90;102539.66;5244860;28;20079;-70
2023/01/27 09:09:07;;;;;;;9.07;5.90;;;;;;;3.36;99.94;102545.84;5244591;28;20113;-70
2023/01/27 09:11:38;;;;;;;6.88;5.65;;;;;;;3.37;99.80;102551.91;5244623;28;20132;-70
2023/01/27 09:14:10;;;;;;;8.65;5.50;;;;;;;3.36;99.85;102550.13;5244755;28;20030;-70
2023/01/27 09:16:42;;;;;;;7.43;6.10;;;;;;;3.42;100.00;102555.56;5244682;28;20030;-70
2023/01/27 09:19:14;;;;;;;7.93;5.50;;;;;;;3.42;100.00;102548.69;5244599;28;20060;-70
2023/01/27 09:21:45;;;;;;;8.68;5.70;;;;;;;3.47;100.00;102548.91;5245050;28;20025;-70
2023/01/27 09:24:18;;;;;;;7.73;5.40;;;;;;;3.62;99.08;102554.75;5244992;28;20117;-70
2023/01/27 09:26:49;;;;;;;7.45;4.93;;;;;;;3.73;99.01;102551.75;5243074;28;20029;-71
2023/01/27 09:29:20;;;;;;;6.13;4.67;;;;;;;3.79;97.40;102557.19;5244387;28;20116;-70
2023/01/27 09:31:52;;;;;;;7.43;5.03;;;;;;;3.82;97.53;102555.63;5244400;28;20156;-70
2023/01/27 09:34:23;;;;;;;5.57;4.93;;;;;;;3.86;97.04;102559.19;5244467;28;20050;-70
2023/01/27 09:37:04;;;;;;;8.07;4.40;;;;;;;3.92;96.49;102561.19;5243455;28;20059;-70
2023/01/27 09:39:42;;;;;;;5.22;4.35;;;;;;;3.92;96.26;102554.31;5244446;28;20040;-70
2023/01/27 09:42:40;;;;;;;5.28;4.60;;;;;;;3.93;95.66;102563.84;5244210;28;20491;-70
2023/01/27 09:45:21;;;;;;;5.00;4.50;;;;;;;3.97;95.52;102573.44;5243695;28;20033;-70
2023/01/27 09:47:52;;;;;;;6.78;4.95;;;;;;;3.87;94.98;102565.28;5244248;28;20469;-70
2023/01/27 09:50:59;;;;;;;6.73;4.50;;;;;;;3.94;95.82;102563.00;5244015;28;20029;-71
2023/01/27 09:53:51;;;;;;;6.80;4.60;;;;;;;3.92;94.72;102568.91;5243569;28;20072;-70
2023/01/27 09:56:44;;;;;;;5.50;4.93;;;;;;;3.93;93.90;102568.09;5244226;28;20026;-70
2023/01/27 09:59:27;;;;;;;7.25;4.88;;;;;;;3.95;94.33;102584.53;5243750;28;20029;-70
2023/01/27 10:02:11;;;;;;;6.43;4.68;;;;;;;4.00;95.09;102581.31;5244099;28;20040;-70
2023/01/27 10:04:57;;;;;;;5.20;3.92;;;;;;;4.08;94.49;102583.38;5243479;28;20032;-70
2023/01/27 10:07:57;;;;;;;5.15;4.32;;;;;;;4.15;94.10;102590.53;5243607;28;20404;-70
2023/01/27 10:11:03;;;;;;;6.85;4.30;;;;;;;4.06;92.58;102590.13;5243798;28;20377;-70
2023/01/27 10:13:49;;;;;;;5.32;4.32;;;;;;;4.11;92.27;102580.94;5243159;28;20076;-70
2023/01/27 10:16:33;;;;;;;6.35;4.22;;;;;;;4.20;92.85;102583.88;5243594;28;20032;-70
2023/01/27 10:19:23;;;;;;;7.97;4.15;;;;;;;4.21;92.61;102590.81;5243902;28;20034;-70
2023/01/27 10:22:09;;;;;;;6.97;4.70;;;;;;;4.36;92.61;102585.41;5243241;28;20388;-70
2023/01/27 10:24:46;;;;;;;7.07;4.60;;;;;;;4.54;91.87;102578.44;5243491;28;20033;-70
2023/01/27 10:27:22;;;;;;;4.90;4.28;;;;;;;4.65;90.71;102572.81;5243514;28;20037;-70
2023/01/27 10:29:59;;;;;;;6.05;3.70;;;;;;;4.70;90.07;102564.44;5242950;28;20035;-70
2023/01/27 10:33:05;;;;;;;5.38;3.95;;;;;;;4.84;90.60;102569.25;5243101;28;20026;-70
2023/01/27 10:35:43;;;;;;;5.95;3.80;;;;;;;4.83;90.86;102570.06;5243591;28;20052;-70
2023/01/27 10:38:49;;;;;;;5.25;3.65;;;;;;;4.91;89.89;102576.41;5243330;28;20041;-70
2023/01/27 10:41:39;;;;;;;6.20;3.45;;;;;;;4.89;89.05;102566.06;5243227;28;20039;-70
2023/01/27 10:44:39;;;;;;;4.53;3.72;;;;;;;4.85;89.22;102568.44;5243299;28;20056;-70
2023/01/27 10:47:36;;;;;;;5.15;3.80;;;;;;;4.89;89.74;102570.31;5241841;28;20108;-70
2023/01/27 10:50:16;;;;;;;5.07;4.10;;;;;;;4.87;89.40;102571.97;5242889;28;20108;-71
2023/01/27 10:53:21;;;;;;;4.82;4.07;;;;;;;4.88;88.85;102568.56;5242504;28;20426;-70
2023/01/27 10:56:26;;;;;;;5.30;3.90;;;;;;;4.80;89.26;102572.53;5242153;28;20038;-70
2023/01/27 10:59:24;;;;;;;5.25;4.00;;;;;;;4.72;89.06;102567.94;5242330;28;20496;-70
2023/01/27 11:02:12;;;;;;;6.05;4.40;;;;;;;4.67;89.70;102566.00;5242515;28;20084;-70
2023/01/27 11:04:47;;;;;;;6.57;4.60;;;;;;;4.66;89.68;102569.41;5242181;28;20389;-70
2023/01/27 11:07:21;;;;;;;5.68;4.88;;;;;;;4.68;89.45;102560.88;5242136;28;20112;-70
2023/01/27 11:10:07;;;;;;;5.28;4.60;;;;;;;4.67;89.51;102553.06;5240779;28;20117;-70
2023/01/27 11:12:43;;;;;;;5.22;4.18;;;;;;;4.52;89.87;102566.25;5242544;28;20121;-70
2023/01/27 11:15:25;;;;;;;6.70;4.55;;;;;;;4.40;89.45;102551.16;5242889;28;20033;-70
2023/01/27 11:18:09;;;;;;;5.72;4.32;;;;;;;4.34;90.02;102559.53;5242532;28;20445;-70
2023/01/27 11:20:47;;;;;;;5.60;4.28;;;;;;;4.22;90.06;102565.88;5241953;28;20469;-70
2023/01/27 11:23:22;;;;;;;5.20;4.10;;;;;;;4.20;90.80;102565.81;5241776;28;20208;-70
2023/01/27 11:26:01;;;;;;;4.80;3.97;;;;;;;4.20;91.07;102561.53;5242631;28;20026;-70
2023/01/27 11:29:10;;;;;;;6.43;4.32;;;;;;;4.16;91.44;102563.94;5242254;28;20037;-70
2023/01/27 11:31:55;;;;;;;6.35;4.15;;;;;;;4.10;91.25;102561.09;5242076;28;20025;-70
2023/01/27 11:34:32;;;;;;;7.28;4.28;;;;;;;4.07;91.38;102560.94;5242276;28;20488;-70
2023/01/27 11:37:27;;;;;;;6.45;4.13;;;;;;;4.07;91.69;102563.53;5241707;28;20045;-70
2023/01/27 11:39:59;;;;;;;5.10;4.15;;;;;;;4.23;91.85;102563.34;5242770;28;20045;-70
2023/01/27 11:42:34;;;;;;;7.17;4.37;;;;;;;4.34;91.26;102561.22;5242011;28;20134;-70
2023/01/27 11:45:12;;;;;;;5.90;4.90;;;;;;;4.43;90.92;102560.72;5241618;28;20029;-70
2023/01/27 11:47:46;;;;;;;5.57;4.10;;;;;;;4.55;90.62;102545.72;5241865;28;20044;-70
2023/01/27 11:50:19;;;;;;;6.57;5.38;;;;;;;4.71;89.62;102549.81;5241687;28;20101;-70
2023/01/27 11:52:58;;;;;;;6.75;4.07;;;;;;;5.00;89.64;102548.34;5241722;28;20389;-70
2023/01/27 11:55:36;;;;;;;7.15;4.30;;;;;;;5.03;88.12;102548.47;5241748;28;20461;-70
2023/01/27 11:58:24;;;;;;;5.93;4.63;;;;;;;5.04;88.51;102549.34;5242293;28;20061;-70
2023/01/27 12:01:00;;;;;;;5.43;4.53;;;;;;;4.83;87.77;102545.13;5241621;28;20130;-70
2023/01/27 12:03:46;;;;;;;6.55;4.53;;;;;;;4.82;87.90;102552.81;5241400;28;20083;-70
2023/01/27 12:06:39;;;;;;;5.10;4.35;;;;;;;4.91;88.68;102548.00;5241268;28;20029;-70
2023/01/27 12:09:29;;;;;;;5.05;4.25;;;;;;;4.88;88.75;102541.03;5241597;28;20029;-70
2023/01/27 12:12:22;;;;;;;5.18;4.22;;;;;;;4.84;88.55;102543.41;5241320;28;20108;-70
2023/01/27 12:14:56;;;;;;;5.40;4.65;;;;;;;4.77;88.45;102541.44;5241761;28;20072;-70
2023/01/27 12:17:44;;;;;;;9.27;4.60;;;;;;;4.67;88.38;102543.66;5242117;28;20437;-70
2023/01/27 12:20:41;;;;;;;7.57;4.25;;;;;;;4.71;88.56;102544.63;5241406;28;20477;-70
2023/01/27 12:23:26;;;;;;;5.95;5.00;;;;;;;4.64;88.24;102534.91;5241512;28;20531;-70
2023/01/27 12:26:00;;;;;;;7.30;4.82;;;;;;;4.64;88.44;102534.91;5241909;28;20026;-70
2023/01/27 12:28:38;;;;;;;4.95;4.35;;;;;;;4.63;88.82;102531.41;5240505;28;20060;-70
2023/01/27 12:31:12;;;;;;;4.68;4.18;;;;;;;4.52;89.01;102528.44;5241645;28;20493;-70